createdAt,value
2022-10-10T00:01:17.824Z,1.83
2022-10-10T00:03:45.589Z,1.10
2022-10-10T00:06:13.563Z,1.52
2022-10-10T00:08:41.794Z,1.35
2022-10-10T00:11:09.712Z,0.90
2022-10-10T00:13:37.317Z,0.80
2022-10-10T00:16:05.075Z,0.90
2022-10-10T00:18:32.837Z,1.10
2022-10-10T00:21:00.278Z,1.05
2022-10-10T00:23:27.744Z,0.88
2022-10-10T00:25:54.996Z,1.00
2022-10-10T00:28:22.441Z,1.45
2022-10-10T00:30:49.707Z,1.75
2022-10-10T00:33:18.267Z,1.05
2022-10-10T00:35:45.533Z,1.38
2022-10-10T00:38:13.759Z,1.92
2022-10-10T00:40:54.902Z,0.90
2022-10-10T00:43:24.894Z,1.08
2022-10-10T00:45:53.396Z,1.13
2022-10-10T00:48:23.196Z,1.30
2022-10-10T00:51:03.281Z,1.60
2022-10-10T00:53:34.788Z,1.50
2022-10-10T00:56:03.080Z,1.50
2022-10-10T00:58:30.948Z,1.05
2022-10-10T01:00:58.193Z,1.45
2022-10-10T01:03:25.693Z,1.40
2022-10-10T01:05:52.906Z,1.33
2022-10-10T01:08:21.665Z,1.50
2022-10-10T01:11:16.279Z,1.38
2022-10-10T01:14:22.045Z,1.20
2022-10-10T01:16:56.136Z,1.20
2022-10-10T01:19:29.343Z,1.48
2022-10-10T01:22:10.313Z,1.50
2022-10-10T01:24:54.915Z,1.90
2022-10-10T01:28:07.194Z,2.10
2022-10-10T01:33:10.716Z,2.22
2022-10-10T01:35:43.886Z,2.78
2022-10-10T01:38:23.026Z,1.98
2022-10-10T01:40:53.704Z,1.90
2022-10-10T01:43:21.104Z,1.70
2022-10-10T01:45:50.837Z,1.60
2022-10-10T01:48:25.088Z,1.92
2022-10-10T01:51:20.113Z,1.80
2022-10-10T01:54:03.454Z,2.17
2022-10-10T01:57:02.881Z,2.10
2022-10-10T01:59:57.481Z,1.70
2022-10-10T02:02:53.766Z,2.30
2022-10-10T02:05:27.144Z,1.80
2022-10-10T02:08:03.429Z,2.38
2022-10-10T02:10:40.312Z,2.40
2022-10-10T02:13:10.648Z,1.80
2022-10-10T02:15:48.866Z,1.77
2022-10-10T02:18:20.827Z,1.85
2022-10-10T02:20:50.027Z,2.08
2022-10-10T02:23:21.277Z,2.00
2022-10-10T02:25:54.405Z,1.90
2022-10-10T02:28:33.553Z,2.50
2022-10-10T02:31:07.016Z,2.65
2022-10-10T02:33:48.656Z,2.00
2022-10-10T02:36:17.978Z,2.40
2022-10-10T02:38:47.548Z,2.25
2022-10-10T02:41:18.443Z,2.72
2022-10-10T02:43:45.957Z,2.15
2022-10-10T02:46:14.730Z,2.00
2022-10-10T02:48:42.913Z,2.45
2022-10-10T02:51:12.294Z,2.15
2022-10-10T02:53:39.722Z,2.08
2022-10-10T02:56:07.005Z,2.03
2022-10-10T02:58:34.685Z,2.00
2022-10-10T03:01:01.917Z,2.40
2022-10-10T03:03:29.446Z,2.75
2022-10-10T03:05:56.613Z,2.50
2022-10-10T03:08:23.984Z,2.50
2022-10-10T03:10:56.235Z,2.63
2022-10-10T03:13:24.352Z,2.30
2022-10-10T03:15:51.817Z,2.28
2022-10-10T03:18:19.720Z,2.70
2022-10-10T03:20:51.151Z,2.78
2022-10-10T03:23:18.436Z,3.83
2022-10-10T03:25:45.873Z,2.65
2022-10-10T03:28:13.390Z,3.33
2022-10-10T03:30:41.287Z,2.85
2022-10-10T03:33:09.693Z,3.78
2022-10-10T03:35:37.737Z,3.42
2022-10-10T03:38:06.034Z,3.08
2022-10-10T03:40:33.854Z,3.50
2022-10-10T03:43:01.152Z,3.70
2022-10-10T03:45:28.504Z,4.07
2022-10-10T03:47:55.640Z,3.85
2022-10-10T03:50:22.979Z,3.80
2022-10-10T03:52:50.560Z,4.22
2022-10-10T03:55:18.611Z,5.13
2022-10-10T03:57:45.797Z,4.45
2022-10-10T04:00:13.652Z,8.50
2022-10-10T04:02:40.888Z,6.25
2022-10-10T04:05:08.342Z,7.05
2022-10-10T04:07:35.532Z,8.10
2022-10-10T04:10:04.166Z,6.03
2022-10-10T04:12:31.341Z,6.57
2022-10-10T04:14:58.689Z,6.18
2022-10-10T04:17:25.878Z,5.82
2022-10-10T04:19:54.114Z,7.97
2022-10-10T04:22:21.421Z,6.55
2022-10-10T04:24:48.864Z,8.00
2022-10-10T04:27:15.991Z,8.65
2022-10-10T04:29:43.336Z,8.38
2022-10-10T04:32:10.645Z,7.28
2022-10-10T04:34:37.983Z,7.75
2022-10-10T04:37:05.125Z,7.15
2022-10-10T04:39:32.456Z,6.95
2022-10-10T04:41:59.733Z,7.20
2022-10-10T04:44:27.571Z,8.27
2022-10-10T04:46:54.709Z,8.18
2022-10-10T04:49:22.231Z,8.27
2022-10-10T04:51:49.414Z,8.82
2022-10-10T04:54:16.782Z,8.27
2022-10-10T04:56:43.978Z,10.27
2022-10-10T04:59:11.821Z,10.80
2022-10-10T05:01:39.209Z,10.57
2022-10-10T05:04:06.834Z,12.10
2022-10-10T05:06:34.043Z,12.98
2022-10-10T05:09:01.567Z,13.88
2022-10-10T05:11:28.832Z,14.77
2022-10-10T05:13:56.254Z,13.95
2022-10-10T05:16:23.415Z,17.30
2022-10-10T05:18:50.774Z,15.60
2022-10-10T05:21:17.984Z,15.25
2022-10-10T05:23:45.482Z,15.55
2022-10-10T05:26:12.685Z,16.65
2022-10-10T05:28:40.180Z,17.75
2022-10-10T05:31:07.682Z,17.02
2022-10-10T05:33:35.088Z,20.13
2022-10-10T05:36:13.617Z,17.85
2022-10-10T05:38:41.446Z,18.13
2022-10-10T05:41:09.156Z,17.65
2022-10-10T05:43:36.685Z,17.83
2022-10-10T05:46:04.644Z,17.10
2022-10-10T05:48:32.302Z,15.93
2022-10-10T05:51:00.376Z,16.58
2022-10-10T05:53:30.257Z,15.50
2022-10-10T05:55:57.510Z,14.15
2022-10-10T05:58:26.288Z,14.18
2022-10-10T06:00:53.930Z,13.10
2022-10-10T06:03:21.495Z,11.55
2022-10-10T06:05:51.563Z,11.35
2022-10-10T06:08:18.967Z,12.65
2022-10-10T06:10:46.672Z,11.25
2022-10-10T06:13:21.597Z,11.02
2022-10-10T06:15:52.106Z,10.77
2022-10-10T06:18:19.492Z,11.25
2022-10-10T06:20:46.752Z,9.65
2022-10-10T06:23:14.161Z,10.02
2022-10-10T06:25:42.075Z,9.52
2022-10-10T06:28:11.308Z,9.18
2022-10-10T06:30:43.531Z,9.68
2022-10-10T06:33:12.477Z,9.32
2022-10-10T06:35:42.003Z,9.27
2022-10-10T06:38:09.855Z,9.60
2022-10-10T06:40:37.116Z,9.50
2022-10-10T06:43:04.833Z,9.40
2022-10-10T06:45:39.393Z,8.43
2022-10-10T06:48:07.576Z,8.75
2022-10-10T06:50:35.432Z,8.45
2022-10-10T06:53:03.177Z,8.93
2022-10-10T06:55:30.445Z,9.40
2022-10-10T06:57:58.512Z,9.00
2022-10-10T07:00:26.119Z,8.80
2022-10-10T07:02:53.855Z,8.95
2022-10-10T07:05:21.150Z,7.85
2022-10-10T07:07:48.491Z,8.38
2022-10-10T07:10:16.169Z,9.13
2022-10-10T07:12:45.158Z,8.77
2022-10-10T07:15:13.145Z,8.60
2022-10-10T07:17:40.719Z,8.38
2022-10-10T07:20:08.442Z,7.70
2022-10-10T07:22:35.799Z,7.32
2022-10-10T07:25:03.008Z,7.03
2022-10-10T07:27:30.378Z,6.97
2022-10-10T07:29:57.589Z,6.75
2022-10-10T07:32:25.213Z,6.18
2022-10-10T07:34:53.657Z,7.25
2022-10-10T07:37:21.303Z,6.35
2022-10-10T07:39:48.503Z,6.60
2022-10-10T07:42:19.590Z,7.30
2022-10-10T07:44:46.903Z,5.72
2022-10-10T07:47:14.323Z,7.18
2022-10-10T07:49:41.563Z,6.00
2022-10-10T07:52:09.048Z,5.82
2022-10-10T07:54:36.240Z,6.00
2022-10-10T07:57:03.586Z,6.97
2022-10-10T07:59:30.776Z,7.00
2022-10-10T08:01:58.281Z,6.50
2022-10-10T08:04:25.522Z,6.25
2022-10-10T08:06:52.912Z,6.47
2022-10-10T08:09:20.148Z,7.18
2022-10-10T08:11:47.510Z,6.60
2022-10-10T08:14:14.652Z,6.13
2022-10-10T08:16:42.033Z,6.38
2022-10-10T08:19:09.923Z,6.80
2022-10-10T08:21:37.742Z,6.88
2022-10-10T08:24:05.114Z,6.18
2022-10-10T08:26:32.712Z,6.90
2022-10-10T08:28:59.831Z,6.88
2022-10-10T08:31:27.338Z,6.00
2022-10-10T08:33:56.797Z,6.43
2022-10-10T08:36:24.732Z,5.43
2022-10-10T08:38:57.166Z,5.85
2022-10-10T08:41:42.856Z,5.82
2022-10-10T08:44:22.120Z,6.75
2022-10-10T08:46:51.951Z,6.70
2022-10-10T08:49:22.386Z,6.22
2022-10-10T08:52:18.229Z,5.93
2022-10-10T08:54:47.959Z,6.28
2022-10-10T08:57:52.927Z,6.10
2022-10-10T09:00:23.011Z,4.97
2022-10-10T09:02:56.752Z,5.63
2022-10-10T09:05:44.630Z,5.40
2022-10-10T09:08:39.617Z,5.88
2022-10-10T09:11:35.456Z,4.75
2022-10-10T09:14:15.391Z,5.38
2022-10-10T09:20:12.461Z,4.18
2022-10-10T09:22:54.217Z,5.03
2022-10-10T09:25:21.400Z,4.28
2022-10-10T09:27:58.814Z,4.78
2022-10-10T09:30:30.066Z,5.28
2022-10-10T09:33:06.583Z,4.82
2022-10-10T09:35:37.672Z,4.43
2022-10-10T09:38:11.263Z,3.92
2022-10-10T09:40:45.464Z,3.88
2022-10-10T09:43:17.962Z,4.68
2022-10-10T09:45:51.261Z,4.28
2022-10-10T09:48:20.120Z,3.65
2022-10-10T09:50:47.706Z,3.72
2022-10-10T09:53:16.547Z,4.20
2022-10-10T09:55:46.412Z,3.38
2022-10-10T09:58:44.614Z,3.33
2022-10-10T10:01:11.897Z,4.05
2022-10-10T10:03:39.676Z,3.50
2022-10-10T10:06:13.105Z,3.72
2022-10-10T10:08:42.737Z,3.42
2022-10-10T10:11:33.098Z,4.18
2022-10-10T10:14:02.555Z,3.40
2022-10-10T10:16:39.141Z,3.83
2022-10-10T10:19:31.467Z,3.03
2022-10-10T10:21:58.689Z,2.75
2022-10-10T10:24:36.585Z,3.13
2022-10-10T10:27:10.882Z,3.20
2022-10-10T10:29:38.829Z,3.60
2022-10-10T10:32:43.172Z,3.25
2022-10-10T10:35:23.034Z,3.85
2022-10-10T10:38:04.171Z,2.92
2022-10-10T10:40:41.173Z,3.08
2022-10-10T10:43:23.258Z,2.88
2022-10-10T10:45:56.561Z,3.03
2022-10-10T10:48:31.825Z,3.35
2022-10-10T10:51:07.283Z,3.00
2022-10-10T10:53:45.974Z,3.75
2022-10-10T10:56:13.390Z,3.10
2022-10-10T10:59:30.389Z,4.20
2022-10-10T11:02:54.904Z,4.00
2022-10-10T11:05:36.841Z,3.35
2022-10-10T11:08:35.971Z,3.28
2022-10-10T11:11:17.320Z,3.40
2022-10-10T11:14:12.749Z,3.50
2022-10-10T11:16:52.132Z,3.15
2022-10-10T11:19:24.173Z,3.50
2022-10-10T11:22:05.727Z,3.40
2022-10-10T11:25:02.728Z,3.55
2022-10-10T11:27:38.531Z,4.20
2022-10-10T11:30:14.765Z,3.67
2022-10-10T11:33:02.658Z,3.63
2022-10-10T11:35:30.117Z,2.95
2022-10-10T11:38:19.270Z,3.28
2022-10-10T11:40:58.340Z,3.20
2022-10-10T11:43:36.927Z,2.97
2022-10-10T11:46:14.987Z,3.60
2022-10-10T11:48:50.152Z,3.63
2022-10-10T11:52:09.439Z,3.10
2022-10-10T11:54:51.874Z,3.70
2022-10-10T11:57:27.647Z,4.57
2022-10-10T12:00:06.203Z,3.63
2022-10-10T12:02:36.998Z,4.22
2022-10-10T12:05:08.147Z,3.60
2022-10-10T12:08:17.804Z,3.13
2022-10-10T12:11:05.314Z,3.30
2022-10-10T12:13:40.288Z,3.25
2022-10-10T12:16:19.691Z,2.75
2022-10-10T12:18:53.001Z,3.80
2022-10-10T12:21:26.818Z,4.28
2022-10-10T12:24:11.300Z,4.10
2022-10-10T12:26:53.510Z,4.45
2022-10-10T12:29:39.597Z,3.78
2022-10-10T12:32:15.894Z,4.82
2022-10-10T12:34:49.382Z,3.70
2022-10-10T12:37:27.549Z,3.70
2022-10-10T12:40:06.870Z,3.42
2022-10-10T12:42:38.846Z,3.85
2022-10-10T12:45:34.130Z,3.85
2022-10-10T12:48:07.404Z,3.47
2022-10-10T12:50:38.232Z,3.50
2022-10-10T12:53:19.376Z,3.50
2022-10-10T12:55:49.534Z,3.75
2022-10-10T12:58:28.266Z,3.67
2022-10-10T13:00:59.132Z,3.78
2022-10-10T13:03:29.366Z,3.17
2022-10-10T13:06:02.680Z,3.85
2022-10-10T13:08:30.719Z,4.10
2022-10-10T13:11:04.631Z,3.92
2022-10-10T13:13:32.242Z,3.30
2022-10-10T13:16:07.209Z,3.72
2022-10-10T13:18:44.278Z,4.22
2022-10-10T13:21:14.914Z,4.00
2022-10-10T13:26:40.355Z,4.15
2022-10-10T13:29:32.267Z,3.23
2022-10-10T13:32:05.135Z,3.70
2022-10-10T13:34:42.785Z,4.10
2022-10-10T13:37:15.117Z,4.18
2022-10-10T13:39:43.229Z,3.85
2022-10-10T13:42:36.439Z,3.75
2022-10-10T13:45:26.602Z,3.90
2022-10-10T13:48:00.742Z,3.85
2022-10-10T13:50:53.388Z,3.75
2022-10-10T13:53:27.516Z,3.55
2022-10-10T13:56:06.601Z,3.63
2022-10-10T13:58:42.131Z,4.07
2022-10-10T14:01:29.710Z,3.88
2022-10-10T14:04:03.671Z,3.70
2022-10-10T14:06:31.519Z,3.83
2022-10-10T14:09:09.279Z,3.90
2022-10-10T14:11:36.734Z,3.72
2022-10-10T14:14:15.981Z,3.83
2022-10-10T14:16:43.140Z,4.43
2022-10-10T14:19:18.480Z,3.92
2022-10-10T14:21:45.780Z,3.85
2022-10-10T14:24:13.193Z,4.15
2022-10-10T14:26:40.339Z,3.92
2022-10-10T14:29:12.915Z,3.80
2022-10-10T14:31:41.897Z,3.97
2022-10-10T14:34:10.525Z,4.78
2022-10-10T14:36:47.191Z,4.35
2022-10-10T14:39:16.508Z,3.92
2022-10-10T14:41:44.373Z,4.32
2022-10-10T14:44:12.575Z,5.32
2022-10-10T14:46:40.993Z,4.47
2022-10-10T14:49:17.797Z,4.97
2022-10-10T14:51:46.019Z,4.78
2022-10-10T14:54:14.445Z,5.28
2022-10-10T14:57:08.700Z,5.45
2022-10-10T14:59:48.283Z,5.50
2022-10-10T15:02:19.719Z,5.40
2022-10-10T15:04:47.163Z,5.00
2022-10-10T15:07:15.661Z,5.47
2022-10-10T15:10:17.471Z,5.32
2022-10-10T15:12:34.444Z,5.50
2022-10-10T15:15:01.910Z,6.07
2022-10-10T15:17:30.569Z,5.82
2022-10-10T15:19:57.780Z,6.18
2022-10-10T15:22:25.171Z,5.97
2022-10-10T15:24:52.318Z,5.50
2022-10-10T15:27:19.605Z,5.93
2022-10-10T15:29:47.035Z,5.88
2022-10-10T15:32:14.183Z,5.32
2022-10-10T15:34:41.341Z,5.90
2022-10-10T15:37:10.531Z,6.13
2022-10-10T15:39:38.044Z,5.90
2022-10-10T15:42:12.698Z,6.15
2022-10-10T15:44:45.937Z,5.93
2022-10-10T15:47:15.702Z,6.53
2022-10-10T15:49:42.973Z,6.50
2022-10-10T15:52:10.710Z,6.72
2022-10-10T15:54:38.088Z,6.55
2022-10-10T15:57:05.628Z,6.60
2022-10-10T15:59:33.450Z,6.70
2022-10-10T16:02:01.660Z,6.18
2022-10-10T16:04:28.915Z,6.90
2022-10-10T16:09:44.053Z,7.60
2022-10-10T16:12:11.421Z,6.78
2022-10-10T16:14:39.192Z,7.40
2022-10-10T16:17:07.079Z,7.10
2022-10-10T16:19:35.810Z,8.35
2022-10-10T16:22:03.411Z,7.25
2022-10-10T16:24:30.961Z,7.25
2022-10-10T16:26:59.722Z,7.22
2022-10-10T16:29:27.338Z,6.97
2022-10-10T16:31:54.885Z,7.45
2022-10-10T16:34:22.298Z,7.07
2022-10-10T16:36:50.002Z,7.40
2022-10-10T16:39:17.381Z,7.10
2022-10-10T16:41:49.125Z,7.72
2022-10-10T16:44:18.089Z,8.40
2022-10-10T16:46:45.548Z,7.63
2022-10-10T16:49:14.349Z,7.95
2022-10-10T16:51:41.860Z,7.72
2022-10-10T16:54:09.032Z,7.85
2022-10-10T16:56:36.668Z,7.40
2022-10-10T16:59:05.534Z,8.00
2022-10-10T17:01:34.164Z,8.05
2022-10-10T17:04:02.661Z,7.32
2022-10-10T17:06:35.318Z,6.78
2022-10-10T17:09:05.822Z,7.70
2022-10-10T17:11:35.495Z,7.60
2022-10-10T17:14:03.130Z,6.93
2022-10-10T17:19:18.367Z,6.88
2022-10-10T17:21:45.818Z,7.22
2022-10-10T17:24:13.436Z,6.38
2022-10-10T17:26:40.695Z,6.93
2022-10-10T17:29:08.255Z,7.32
2022-10-10T17:31:35.515Z,6.78
2022-10-10T17:34:02.694Z,6.35
2022-10-10T17:36:30.219Z,6.03
2022-10-10T17:39:00.235Z,6.22
2022-10-10T17:41:29.408Z,5.70
2022-10-10T17:43:56.967Z,6.90
2022-10-10T17:46:34.741Z,6.30
2022-10-10T17:49:04.876Z,6.03
2022-10-10T17:51:32.542Z,7.00
2022-10-10T17:54:01.151Z,7.03
2022-10-10T17:56:28.910Z,6.18
2022-10-10T17:58:56.389Z,6.93
2022-10-10T18:01:23.755Z,6.50
2022-10-10T18:03:51.438Z,7.53
2022-10-10T18:06:21.755Z,7.15
2022-10-10T18:08:53.763Z,7.22
2022-10-10T18:11:24.080Z,7.90
2022-10-10T18:13:52.406Z,7.15
2022-10-10T18:16:21.858Z,6.88
2022-10-10T18:18:52.041Z,10.13
2022-10-10T18:21:22.158Z,7.28
2022-10-10T18:23:50.474Z,8.07
2022-10-10T18:26:20.963Z,7.93
2022-10-10T18:28:49.216Z,7.85
2022-10-10T18:31:19.653Z,6.93
2022-10-10T18:33:47.622Z,7.38
2022-10-10T18:36:18.201Z,7.70
2022-10-10T18:38:46.145Z,8.90
2022-10-10T18:41:21.995Z,8.35
2022-10-10T18:43:52.261Z,7.63
2022-10-10T18:46:22.180Z,7.32
2022-10-10T18:48:53.771Z,7.88
2022-10-10T18:51:26.490Z,7.65
2022-10-10T18:53:58.083Z,8.75
2022-10-10T18:56:25.730Z,7.53
2022-10-10T18:58:55.694Z,7.38
2022-10-10T19:01:25.482Z,7.88
2022-10-10T19:03:55.220Z,7.60
2022-10-10T19:06:24.252Z,7.75
2022-10-10T19:08:54.359Z,8.05
2022-10-10T19:11:28.345Z,6.50
2022-10-10T19:13:56.288Z,6.90
2022-10-10T19:16:23.820Z,6.82
2022-10-10T19:18:53.350Z,6.10
2022-10-10T19:21:22.560Z,6.57
2022-10-10T19:23:50.337Z,7.13
2022-10-10T19:26:18.041Z,7.00
2022-10-10T19:28:45.525Z,6.47
2022-10-10T19:31:17.826Z,6.18
2022-10-10T19:33:45.962Z,6.45
2022-10-10T19:36:13.625Z,6.35
2022-10-10T19:38:42.573Z,5.93
2022-10-10T19:41:13.031Z,6.07
2022-10-10T19:43:44.692Z,6.03
2022-10-10T19:48:41.540Z,5.53
2022-10-10T19:51:14.414Z,4.88
2022-10-10T19:53:42.954Z,5.07
2022-10-10T19:56:16.139Z,5.13
2022-10-10T19:58:43.819Z,4.30
2022-10-10T20:01:16.534Z,4.45
2022-10-10T20:03:45.229Z,5.38
2022-10-10T20:06:12.688Z,5.03
2022-10-10T20:08:40.050Z,4.43
2022-10-10T20:11:07.705Z,5.13
2022-10-10T20:13:35.123Z,5.03
2022-10-10T20:16:04.955Z,4.95
2022-10-10T20:18:34.576Z,5.38
2022-10-10T20:21:09.458Z,4.47
2022-10-10T20:23:40.039Z,4.90
2022-10-10T20:26:13.242Z,5.28
2022-10-10T20:28:41.314Z,4.50
2022-10-10T20:31:20.294Z,4.85
2022-10-10T20:33:49.634Z,4.70
2022-10-10T20:36:18.105Z,4.65
2022-10-10T20:38:50.782Z,4.50
2022-10-10T20:41:18.202Z,5.55
2022-10-10T20:43:45.343Z,4.93
2022-10-10T20:46:14.184Z,5.03
2022-10-10T20:48:41.764Z,4.53
2022-10-10T20:51:11.433Z,4.50
2022-10-10T20:53:43.793Z,4.72
2022-10-10T20:56:13.137Z,5.25
2022-10-10T20:58:40.921Z,4.68
2022-10-10T21:01:13.674Z,4.78
2022-10-10T21:03:42.956Z,5.00
2022-10-10T21:06:11.719Z,5.28
2022-10-10T21:08:39.516Z,5.60
2022-10-10T21:11:08.845Z,4.53
2022-10-10T21:13:37.886Z,4.80
2022-10-10T21:16:10.355Z,5.10
2022-10-10T21:18:37.990Z,4.88
2022-10-10T21:21:06.595Z,4.75
2022-10-10T21:23:37.658Z,4.57
2022-10-10T21:26:10.899Z,4.70
2022-10-10T21:28:38.579Z,4.60
2022-10-10T21:31:06.915Z,5.03
2022-10-10T21:33:34.775Z,4.25
2022-10-10T21:36:02.524Z,4.70
2022-10-10T21:38:31.396Z,4.90
2022-10-10T21:41:05.574Z,4.57
2022-10-10T21:43:34.445Z,4.38
2022-10-10T21:46:06.941Z,5.38
2022-10-10T21:48:35.097Z,4.55
2022-10-10T21:51:02.481Z,5.25
2022-10-10T21:53:29.794Z,5.20
2022-10-10T21:55:57.489Z,4.47
2022-10-10T21:58:25.448Z,5.07
2022-10-10T22:00:52.602Z,4.93
2022-10-10T22:03:20.039Z,4.63
2022-10-10T22:05:47.173Z,4.93
2022-10-10T22:08:14.675Z,4.82
2022-10-10T22:10:42.178Z,4.95
2022-10-10T22:13:09.318Z,5.03
2022-10-10T22:15:36.765Z,5.30
2022-10-10T22:18:04.237Z,5.13
2022-10-10T22:20:31.597Z,4.00
2022-10-10T22:22:58.747Z,5.13
2022-10-10T22:25:26.140Z,5.00
2022-10-10T22:27:57.161Z,4.38
2022-10-10T22:30:24.632Z,4.90
2022-10-10T22:32:52.117Z,4.53
2022-10-10T22:35:19.514Z,4.53
2022-10-10T22:37:46.881Z,5.03
2022-10-10T22:40:14.138Z,5.20
2022-10-10T22:42:41.384Z,4.80
2022-10-10T22:45:09.264Z,4.60
2022-10-10T22:47:36.437Z,4.53
2022-10-10T22:50:04.175Z,4.55
2022-10-10T22:52:31.346Z,5.82
2022-10-10T22:55:00.468Z,6.53
2022-10-10T22:57:27.876Z,4.95
2022-10-10T22:59:55.050Z,4.65
2022-10-10T23:02:22.196Z,4.90
2022-10-10T23:04:49.550Z,4.93
2022-10-10T23:07:20.040Z,5.63
2022-10-10T23:09:48.667Z,4.97
2022-10-10T23:12:15.803Z,4.90
2022-10-10T23:14:42.971Z,5.25
2022-10-10T23:17:10.426Z,4.93
2022-10-10T23:19:37.625Z,5.43
2022-10-10T23:22:04.831Z,5.32
2022-10-10T23:24:32.214Z,5.47
2022-10-10T23:26:59.373Z,5.63
2022-10-10T23:29:26.614Z,5.30
2022-10-10T23:31:53.997Z,5.40
2022-10-10T23:34:21.131Z,5.43
2022-10-10T23:36:48.326Z,5.57
2022-10-10T23:39:15.688Z,5.45
2022-10-10T23:41:42.883Z,5.25
2022-10-10T23:44:10.047Z,5.10
2022-10-10T23:46:37.507Z,5.47
2022-10-10T23:49:04.688Z,5.97
2022-10-10T23:51:32.280Z,5.47
2022-10-10T23:53:59.705Z,5.40
2022-10-10T23:56:26.976Z,5.30
2022-10-10T23:58:54.126Z,6.00
